Time;durP1;ratioP1;P1;durP2;ratioP2;P2;SDS_P1;SDS_P2;PMS_P1;PMS_P2;Temp;Humidity;BMP_temperature;BMP_pressure;BME280_temperature;BME280_humidity;BME280_pressure;Samples;Min_cycle;Max_cycle;Signal;HPM_P1;HPM_P2
2022/06/28 00:01:27;;;;;;;11.37;5.17;;;;;;;23.60;50.47;100261.03;31253076;28;20053;-70
2022/06/28 00:16:29;;;;;;;11.77;5.53;;;;;;;23.34;50.15;100239.84;31271009;28;20541;-69
2022/06/28 00:31:31;;;;;;;17.40;5.70;;;;;;;23.22;50.96;100232.75;31257556;28;20061;-69
2022/06/28 00:46:33;;;;;;;14.43;6.67;;;;;;;23.04;51.50;100233.25;31295888;28;20044;-70
2022/06/28 01:01:35;;;;;;;10.80;5.07;;;;;;;22.50;55.16;100263.75;31295473;28;20041;-69
2022/06/28 01:16:38;;;;;;;7.30;4.17;;;;;;;21.91;57.79;100260.91;31293569;28;20061;-69
2022/06/28 01:31:40;;;;;;;9.40;4.13;;;;;;;21.63;58.98;100260.72;31300146;28;20053;-70
2022/06/28 01:46:43;;;;;;;7.07;4.03;;;;;;;21.38;60.57;100253.97;31298877;28;20081;-69
2022/06/28 02:01:45;;;;;;;7.05;4.10;;;;;;;21.21;61.41;100256.59;31294335;28;20052;-69
2022/06/28 02:16:47;;;;;;;8.38;4.10;;;;;;;21.07;62.59;100254.66;31282421;28;20057;-69
2022/06/28 02:31:49;;;;;;;10.13;4.50;;;;;;;21.04;64.21;100245.34;31296725;28;20061;-70
2022/06/28 02:46:51;;;;;;;8.65;4.78;;;;;;;20.91;64.83;100246.97;31274603;28;20059;-69
2022/06/28 03:01:53;;;;;;;7.47;4.05;;;;;;;21.05;64.95;100246.84;31283294;28;20059;-70
2022/06/28 03:16:55;;;;;;;8.88;6.63;;;;;;;21.28;64.63;100253.38;31274272;28;20064;-70
2022/06/28 03:31:57;;;;;;;13.15;6.82;;;;;;;21.69;63.31;100253.97;31272723;28;20461;-69
2022/06/28 03:46:59;;;;;;;14.93;5.90;;;;;;;22.19;60.01;100256.34;31282986;28;20055;-69
2022/06/28 04:02:01;;;;;;;15.73;5.70;;;;;;;22.47;59.36;100259.22;31256532;28;20548;-70
2022/06/28 04:17:04;;;;;;;16.80;7.63;;;;;;;23.12;56.72;100251.66;31272242;28;20487;-70
2022/06/28 04:32:06;;;;;;;20.00;7.67;;;;;;;23.55;54.38;100253.47;31313964;28;20057;-68
2022/06/28 04:47:08;;;;;;;20.33;7.50;;;;;;;24.28;52.77;100265.22;31311846;28;20064;-69
2022/06/28 05:02:10;;;;;;;13.90;6.47;;;;;;;24.77;51.62;100267.03;31310387;28;20045;-69
2022/06/28 05:17:13;;;;;;;10.00;5.00;;;;;;;25.27;48.94;100266.00;31284392;28;20057;-69
2022/06/28 05:32:14;;;;;;;17.87;4.77;;;;;;;25.68;46.99;100277.06;31259541;28;20053;-70
2022/06/28 05:47:17;;;;;;;10.98;4.75;;;;;;;26.09;44.29;100285.25;31279944;28;20479;-69
2022/06/28 06:02:19;;;;;;;8.43;4.15;;;;;;;26.33;43.30;100272.63;31302867;28;20052;-70
2022/06/28 06:17:21;;;;;;;11.32;4.78;;;;;;;26.46;43.04;100275.50;31277202;28;20083;-71
2022/06/28 06:32:23;;;;;;;12.18;5.45;;;;;;;26.40;43.57;100272.03;31263019;28;20052;-71
2022/06/28 06:47:25;;;;;;;9.43;4.40;;;;;;;27.10;39.43;100265.31;31264753;28;20064;-71
2022/06/28 07:02:27;;;;;;;12.45;5.43;;;;;;;27.89;36.29;100275.94;31269208;28;20461;-72
2022/06/28 07:17:29;;;;;;;17.83;11.18;;;;;;;29.03;34.05;100283.09;31268479;28;20061;-71
2022/06/28 07:32:31;;;;;;;11.15;2.95;;;;;;;29.60;27.96;100272.06;31252524;28;20069;-78
2022/06/28 07:47:33;;;;;;;11.38;3.97;;;;;;;29.86;27.26;100271.16;31285448;28;20168;-72
2022/06/28 08:02:36;;;;;;;3.70;1.85;;;;;;;30.45;26.80;100251.75;31294623;28;20483;-70
2022/06/28 08:17:39;;;;;;;5.03;1.95;;;;;;;30.90;25.46;100256.03;31277369;28;20061;-76
2022/06/28 08:32:41;;;;;;;4.60;1.83;;;;;;;31.35;21.72;100244.91;31292029;28;21761;-70
2022/06/28 08:47:47;;;;;;;4.25;2.22;;;;;;;31.84;22.83;100257.81;31268819;28;20065;-77
2022/06/28 09:02:49;;;;;;;4.55;2.38;;;;;;;31.98;22.49;100239.44;31280347;28;20045;-68
2022/06/28 09:17:54;;;;;;;10.18;2.60;;;;;;;32.98;23.20;100226.50;31289822;28;20057;-76
2022/06/28 09:32:57;;;;;;;57.90;17.45;;;;;;;32.74;23.73;100224.41;31302619;28;20057;-85
2022/06/28 09:47:59;;;;;;;5.80;1.13;;;;;;;33.55;21.44;100209.56;31278353;28;20057;-71
2022/06/28 10:03:07;;;;;;;5.07;1.10;;;;;;;34.17;22.39;100209.69;31268687;28;20058;-69
2022/06/28 10:18:14;;;;;;;4.00;1.38;;;;;;;34.52;21.67;100204.75;31264446;28;20069;-70
2022/06/28 10:33:16;;;;;;;5.18;1.40;;;;;;;34.86;21.79;100210.31;31288792;28;20044;-70
2022/06/28 10:48:18;;;;;;;3.17;1.45;;;;;;;35.11;22.50;100189.63;31286055;28;20068;-73
2022/06/28 11:03:21;;;;;;;3.78;1.15;;;;;;;34.27;22.12;100184.41;31260117;28;20057;-70
2022/06/28 11:18:23;;;;;;;7.35;0.98;;;;;;;33.64;22.55;100182.84;31278597;28;20485;-71
2022/06/28 11:33:32;;;;;;;4.97;1.10;;;;;;;32.96;22.47;100167.28;31222334;28;20068;-71
2022/06/28 11:48:34;;;;;;;1.13;0.80;;;;;;;32.56;23.46;100142.06;31154644;28;20056;-70
2022/06/28 12:03:56;;;;;;;2.97;1.15;;;;;;;31.95;24.41;100125.47;31160026;28;20049;-75
2022/06/28 12:19:02;;;;;;;2.35;1.40;;;;;;;31.99;25.05;100123.03;31164240;28;20061;-82
2022/06/28 12:34:13;;;;;;;7.57;3.97;;;;;;;31.44;24.79;100118.13;31154638;28;20050;-74
2022/06/28 12:49:15;;;;;;;4.97;1.40;;;;;;;31.46;24.32;100126.72;31157084;28;20430;-68
2022/06/28 13:04:17;;;;;;;6.75;1.48;;;;;;;31.35;24.87;100121.50;31187526;28;20482;-74
2022/06/28 13:19:19;;;;;;;3.15;1.23;;;;;;;31.26;24.92;100124.13;31177089;28;20050;-69
2022/06/28 13:34:21;;;;;;;3.50;1.50;;;;;;;31.26;25.34;100135.34;31176194;28;20064;-70
2022/06/28 13:49:24;;;;;;;5.75;1.42;;;;;;;31.25;25.44;100111.41;31158245;28;20071;-70
2022/06/28 14:04:27;;;;;;;4.47;1.40;;;;;;;31.43;26.20;100105.41;31155786;28;20399;-76
2022/06/28 14:19:29;;;;;;;4.30;1.30;;;;;;;31.03;27.19;100107.31;31151586;28;20053;-74
2022/06/28 14:34:31;;;;;;;2.70;1.30;;;;;;;30.94;27.94;100097.41;31157546;28;20064;-75
2022/06/28 14:49:33;;;;;;;10.82;4.32;;;;;;;31.05;28.70;100073.84;31151893;28;20057;-77
2022/06/28 15:04:35;;;;;;;6.63;2.17;;;;;;;30.86;29.67;100065.84;31164205;28;20056;-70
2022/06/28 15:19:37;;;;;;;6.00;2.80;;;;;;;30.82;30.25;100059.84;31158851;28;20058;-74
2022/06/28 15:34:39;;;;;;;5.43;3.00;;;;;;;30.71;30.91;100072.16;31144414;28;20531;-77
2022/06/28 15:49:42;;;;;;;7.65;3.47;;;;;;;30.32;33.30;100081.06;31160009;28;20053;-69
2022/06/28 16:04:44;;;;;;;6.10;3.10;;;;;;;30.16;33.09;100075.44;31159034;28;20049;-76
2022/06/28 16:19:45;;;;;;;6.43;3.67;;;;;;;29.94;34.41;100084.47;31176923;28;20049;-71
2022/06/28 16:35:09;;;;;;;5.97;3.30;;;;;;;29.76;34.54;100072.25;31214318;28;20113;-71
2022/06/28 16:50:17;;;;;;;7.13;4.07;;;;;;;29.62;35.43;100061.75;31228302;28;20053;-72
2022/06/28 17:05:22;;;;;;;8.00;3.70;;;;;;;29.35;36.23;100028.41;31211266;28;20067;-71
2022/06/28 17:20:24;;;;;;;8.05;3.35;;;;;;;29.15;36.49;100027.19;31225090;28;20063;-72
2022/06/28 17:35:26;;;;;;;8.80;4.18;;;;;;;29.04;36.33;100032.34;31205295;28;20152;-70
2022/06/28 17:50:28;;;;;;;6.68;3.30;;;;;;;28.97;36.36;100039.34;31214798;28;20045;-71
2022/06/28 18:05:31;;;;;;;12.35;3.95;;;;;;;28.81;37.19;100086.00;31226621;28;20452;-71
2022/06/28 18:20:35;;;;;;;8.90;3.67;;;;;;;28.66;37.34;100087.84;31195598;28;20080;-71
2022/06/28 18:35:37;;;;;;;16.60;6.30;;;;;;;28.03;39.40;100121.22;31223353;28;20049;-72
2022/06/28 18:50:40;;;;;;;7.28;5.50;;;;;;;27.37;45.59;100115.66;31214429;28;20056;-71
2022/06/28 19:05:42;;;;;;;8.00;5.15;;;;;;;26.74;56.19;100138.72;31159989;28;20049;-71
2022/06/28 19:20:44;;;;;;;9.00;6.45;;;;;;;26.56;56.08;100126.31;31163377;28;20057;-73
2022/06/28 19:35:46;;;;;;;7.25;5.68;;;;;;;26.45;57.21;100126.50;31170174;28;20054;-73
2022/06/28 19:50:48;;;;;;;12.63;7.15;;;;;;;26.30;58.19;100140.09;31165575;28;20064;-71
2022/06/28 20:05:50;;;;;;;8.50;6.45;;;;;;;26.15;59.37;100146.84;31174399;28;20077;-71
2022/06/28 20:20:52;;;;;;;10.88;6.60;;;;;;;25.98;60.32;100142.78;31166269;28;20052;-71
2022/06/28 20:35:54;;;;;;;8.13;6.35;;;;;;;25.81;61.70;100145.75;31158992;28;20053;-71
2022/06/28 20:50:56;;;;;;;12.30;8.52;;;;;;;25.64;62.77;100159.84;31141786;28;20061;-69
2022/06/28 21:05:58;;;;;;;8.45;6.80;;;;;;;25.55;63.92;100176.81;31176358;28;20057;-71
2022/06/28 21:21:00;;;;;;;;;;;;;;;25.38;68.22;100182.53;31161931;28;20057;-72
2022/06/28 21:36:02;;;;;;;8.93;7.15;;;;;;;25.13;66.49;100178.97;31198033;28;19943;-70
2022/06/28 21:51:41;;;;;;;8.77;7.05;;;;;;;24.86;66.66;100177.09;31183629;28;20052;-71
2022/06/28 22:06:27;;;;;;;10.47;6.70;;;;;;;24.51;67.92;100163.22;31202148;28;20108;-70
2022/06/28 22:21:29;;;;;;;9.37;7.20;;;;;;;24.28;67.48;100145.94;31195687;28;20057;-70
2022/06/28 22:36:31;;;;;;;;;;;;;;;24.07;69.50;100131.63;31193440;28;20053;-72
2022/06/28 22:51:33;;;;;;;11.00;7.03;;;;;;;23.85;68.82;100134.50;31175471;28;20364;-71
2022/06/28 23:06:35;;;;;;;11.20;7.13;;;;;;;23.69;70.26;100152.66;31176803;28;20518;-70
2022/06/28 23:21:37;;;;;;;12.20;8.90;;;;;;;23.53;71.24;100167.31;31181595;28;20411;-71
2022/06/28 23:36:39;;;;;;;18.20;9.50;;;;;;;23.39;72.11;100169.81;31030891;28;20050;-71
2022/06/28 23:51:41;;;;;;;16.97;10.10;;;;;;;23.31;72.48;100174.38;31058599;28;20065;-70
